createdAt,value
2019-02-23T00:02:08.780Z,104.87
2019-02-23T00:04:40.171Z,105.43
2019-02-23T00:07:11.534Z,101.15
2019-02-23T00:09:42.865Z,114.37
2019-02-23T00:12:27.448Z,106.83
2019-02-23T00:14:59.842Z,101.87
2019-02-23T00:17:31.222Z,103.97
2019-02-23T00:20:02.582Z,99.67
2019-02-23T00:22:34.131Z,96.45
2019-02-23T00:25:05.522Z,92.83
2019-02-23T00:27:36.720Z,94.30
2019-02-23T00:30:08.375Z,96.07
2019-02-23T00:32:39.652Z,94.47
2019-02-23T00:35:12.097Z,97.40
2019-02-23T00:37:43.522Z,94.13
2019-02-23T00:40:14.843Z,95.40
2019-02-23T00:42:46.188Z,96.40
2019-02-23T00:45:17.485Z,96.83
2019-02-23T00:47:48.788Z,96.22
2019-02-23T00:50:20.090Z,93.20
2019-02-23T00:52:51.344Z,94.80
2019-02-23T00:55:22.716Z,96.40
2019-02-23T00:57:55.517Z,97.37
2019-02-23T01:00:26.624Z,98.83
2019-02-23T01:02:58.113Z,99.00
2019-02-23T01:05:29.347Z,100.80
2019-02-23T01:08:00.582Z,97.00
2019-02-23T01:10:32.975Z,85.80
2019-02-23T01:13:04.105Z,85.10
2019-02-23T01:15:35.583Z,87.07
2019-02-23T01:18:06.980Z,87.17
2019-02-23T01:20:39.112Z,84.67
2019-02-23T01:23:10.208Z,86.97
2019-02-23T01:25:41.414Z,80.37
2019-02-23T01:28:12.657Z,77.97
2019-02-23T01:30:44.055Z,78.40
2019-02-23T01:33:15.336Z,78.30
2019-02-23T01:35:46.746Z,71.40
2019-02-23T01:38:17.976Z,61.93
2019-02-23T01:40:49.306Z,56.70
2019-02-23T01:43:20.792Z,53.83
2019-02-23T01:45:51.939Z,51.63
2019-02-23T01:48:23.309Z,52.93
2019-02-23T01:50:54.486Z,54.17
2019-02-23T01:53:25.631Z,52.93
2019-02-23T01:55:56.983Z,53.37
2019-02-23T01:58:28.423Z,52.23
2019-02-23T02:00:59.909Z,52.53
2019-02-23T02:03:31.020Z,52.43
2019-02-23T02:06:02.221Z,52.97
2019-02-23T02:08:34.713Z,52.40
2019-02-23T02:11:06.264Z,52.33
2019-02-23T02:13:37.489Z,51.88
2019-02-23T02:16:09.001Z,53.37
2019-02-23T02:18:40.328Z,52.40
2019-02-23T02:21:11.519Z,53.50
2019-02-23T02:23:42.778Z,54.50
2019-02-23T02:26:14.070Z,54.10
2019-02-23T02:28:45.430Z,54.20
2019-02-23T02:31:16.674Z,55.05
2019-02-23T02:34:13.712Z,55.30
2019-02-23T02:36:44.989Z,54.93
2019-02-23T02:39:17.317Z,50.35
2019-02-23T02:41:48.633Z,51.00
2019-02-23T02:44:20.465Z,49.98
2019-02-23T02:46:51.878Z,49.97
2019-02-23T02:49:23.041Z,49.27
2019-02-23T02:51:54.177Z,48.20
2019-02-23T02:54:25.366Z,48.67
2019-02-23T02:56:56.634Z,50.05
2019-02-23T02:59:28.646Z,49.45
2019-02-23T03:01:59.918Z,50.07
2019-02-23T03:04:31.182Z,46.77
2019-02-23T03:07:02.481Z,52.15
2019-02-23T03:09:33.653Z,48.23
2019-02-23T03:12:04.821Z,49.70
2019-02-23T03:14:36.677Z,48.90
2019-02-23T03:17:09.526Z,48.47
2019-02-23T03:19:40.891Z,49.20
2019-02-23T03:22:12.162Z,49.05
2019-02-23T03:24:43.571Z,49.08
2019-02-23T03:27:14.966Z,49.05
2019-02-23T03:29:46.248Z,48.28
2019-02-23T03:32:18.499Z,49.40
2019-02-23T03:34:49.758Z,47.93
2019-02-23T03:37:21.069Z,49.42
2019-02-23T03:39:52.385Z,48.00
2019-02-23T03:42:23.804Z,45.37
2019-02-23T03:44:55.306Z,46.95
2019-02-23T03:47:26.697Z,45.60
2019-02-23T03:49:58.018Z,46.73
2019-02-23T03:52:41.003Z,48.98
2019-02-23T03:55:12.358Z,49.00
2019-02-23T03:57:44.056Z,49.33
2019-02-23T04:00:15.484Z,48.27
2019-02-23T04:02:46.763Z,52.40
2019-02-23T04:05:17.985Z,51.57
2019-02-23T04:07:50.446Z,49.88
2019-02-23T04:10:21.827Z,52.20
2019-02-23T04:12:53.173Z,49.63
2019-02-23T04:15:24.572Z,50.70
2019-02-23T04:17:56.033Z,47.03
2019-02-23T04:20:28.553Z,50.38
2019-02-23T04:22:59.806Z,47.73
2019-02-23T04:25:31.040Z,56.03
2019-02-23T04:28:02.325Z,66.00
2019-02-23T04:30:34.682Z,70.97
2019-02-23T04:33:06.025Z,81.33
2019-02-23T04:35:37.363Z,91.93
2019-02-23T04:38:09.538Z,93.37
2019-02-23T04:40:40.732Z,92.62
2019-02-23T04:43:24.292Z,93.03
2019-02-23T04:45:55.659Z,94.83
2019-02-23T04:48:26.872Z,96.17
2019-02-23T04:50:58.178Z,98.75
2019-02-23T04:53:29.440Z,95.67
2019-02-23T04:56:00.790Z,92.55
2019-02-23T04:58:32.439Z,92.08
2019-02-23T05:01:03.956Z,96.33
2019-02-23T05:03:35.603Z,92.37
2019-02-23T05:06:07.518Z,91.75
2019-02-23T05:08:38.656Z,89.23
2019-02-23T05:11:10.101Z,89.47
2019-02-23T05:13:42.290Z,90.35
2019-02-23T05:16:14.413Z,87.05
2019-02-23T05:18:45.523Z,85.42
2019-02-23T05:21:26.027Z,90.25
2019-02-23T05:23:50.617Z,90.47
2019-02-23T05:26:21.936Z,88.30
2019-02-23T05:28:53.004Z,91.93
2019-02-23T05:31:24.493Z,92.87
2019-02-23T05:33:55.664Z,93.05
2019-02-23T05:36:27.203Z,94.60
2019-02-23T05:38:58.413Z,96.47
2019-02-23T05:41:29.729Z,93.37
2019-02-23T05:44:01.020Z,96.87
2019-02-23T05:46:33.152Z,82.88
2019-02-23T05:49:04.520Z,81.53
2019-02-23T05:51:38.887Z,56.63
2019-02-23T05:54:08.668Z,30.35
2019-02-23T05:56:40.086Z,8.63
2019-02-23T05:59:11.299Z,5.42
2019-02-23T06:01:42.791Z,4.90
2019-02-23T06:04:13.898Z,4.58
2019-02-23T06:06:45.106Z,4.95
2019-02-23T06:09:16.562Z,4.50
2019-02-23T06:11:47.848Z,4.08
2019-02-23T06:14:20.045Z,4.33
2019-02-23T06:16:51.364Z,3.45
2019-02-23T06:19:34.421Z,4.10
2019-02-23T06:22:07.568Z,3.50
2019-02-23T06:24:50.213Z,3.30
2019-02-23T06:27:21.621Z,3.37
2019-02-23T06:29:53.009Z,3.20
2019-02-23T06:32:24.365Z,3.40
2019-02-23T06:34:55.552Z,4.47
2019-02-23T06:37:26.941Z,2.67
2019-02-23T06:39:58.280Z,3.00
2019-02-23T06:42:29.789Z,2.87
2019-02-23T06:45:00.986Z,2.45
2019-02-23T06:47:32.279Z,2.80
2019-02-23T06:50:04.758Z,4.08
2019-02-23T06:52:35.938Z,3.30
2019-02-23T06:55:07.474Z,3.62
2019-02-23T06:57:38.679Z,6.45
2019-02-23T07:00:13.101Z,3.90
2019-02-23T07:02:44.565Z,4.37
2019-02-23T07:05:15.885Z,3.92
2019-02-23T07:07:47.488Z,3.92
2019-02-23T07:10:18.767Z,2.60
2019-02-23T07:12:49.994Z,2.85
2019-02-23T07:15:21.401Z,3.67
2019-02-23T07:17:52.627Z,4.58
2019-02-23T07:20:43.652Z,4.05
2019-02-23T07:23:07.706Z,2.90
2019-02-23T07:25:38.909Z,2.10
2019-02-23T07:28:10.937Z,2.30
2019-02-23T07:30:43.577Z,2.00
2019-02-23T07:33:32.847Z,1.80
2019-02-23T07:36:00.542Z,2.55
2019-02-23T07:38:31.807Z,2.17
2019-02-23T07:41:04.251Z,2.67
2019-02-23T07:43:35.579Z,2.35
2019-02-23T07:46:06.834Z,2.00
2019-02-23T07:48:37.983Z,1.87
2019-02-23T07:51:09.355Z,3.10
2019-02-23T07:53:40.419Z,3.22
2019-02-23T07:56:11.788Z,1.87
2019-02-23T07:58:43.117Z,2.55
2019-02-23T08:01:14.754Z,3.15
2019-02-23T08:03:46.106Z,2.25
2019-02-23T08:06:17.302Z,3.08
2019-02-23T08:08:48.518Z,4.37
2019-02-23T08:11:20.362Z,7.87
2019-02-23T08:13:51.662Z,3.47
2019-02-23T08:16:23.125Z,3.02
2019-02-23T08:18:54.262Z,15.58
2019-02-23T08:21:25.513Z,17.80
2019-02-23T08:23:56.788Z,5.47
2019-02-23T08:26:28.661Z,4.40
2019-02-23T08:28:59.817Z,4.80
2019-02-23T08:31:31.228Z,4.12
2019-02-23T08:34:02.449Z,3.20
2019-02-23T08:36:35.203Z,3.00
2019-02-23T08:39:07.189Z,3.50
2019-02-23T08:41:39.332Z,4.95
2019-02-23T08:44:11.909Z,4.65
2019-02-23T08:46:43.635Z,2.60
2019-02-23T08:49:14.823Z,4.20
2019-02-23T08:51:46.121Z,11.88
2019-02-23T08:54:17.447Z,4.00
2019-02-23T08:56:48.926Z,2.45
2019-02-23T08:59:20.096Z,3.72
2019-02-23T09:01:51.481Z,4.85
2019-02-23T09:04:34.455Z,6.78
2019-02-23T09:07:05.761Z,4.97
2019-02-23T09:09:37.016Z,3.33
2019-02-23T09:12:08.430Z,2.50
2019-02-23T09:14:39.710Z,2.50
2019-02-23T09:17:11.202Z,2.50
2019-02-23T09:19:43.238Z,2.40
2019-02-23T09:22:14.479Z,3.15
2019-02-23T09:24:45.802Z,9.20
2019-02-23T09:27:17.069Z,8.20
2019-02-23T09:29:48.536Z,37.90
2019-02-23T09:32:19.827Z,23.12
2019-02-23T09:34:51.406Z,11.20
2019-02-23T09:37:22.784Z,20.27
2019-02-23T09:39:54.190Z,11.15
2019-02-23T09:42:25.463Z,17.92
2019-02-23T09:44:57.314Z,9.80
2019-02-23T09:47:28.624Z,12.85
2019-02-23T09:49:59.967Z,34.58
2019-02-23T09:52:32.233Z,17.95
2019-02-23T09:55:03.684Z,21.42
2019-02-23T09:57:34.981Z,15.20
2019-02-23T10:00:06.605Z,13.45
2019-02-23T10:02:38.318Z,11.80
2019-02-23T10:05:09.888Z,13.80
2019-02-23T10:07:41.431Z,12.23
2019-02-23T10:10:12.809Z,14.13
2019-02-23T10:12:44.244Z,21.55
2019-02-23T10:15:15.837Z,10.05
2019-02-23T10:17:48.243Z,11.53
2019-02-23T10:20:19.638Z,16.15
2019-02-23T10:22:50.989Z,22.95
2019-02-23T10:25:22.379Z,18.85
2019-02-23T10:27:53.871Z,22.73
2019-02-23T10:30:25.230Z,16.17
2019-02-23T10:32:56.958Z,26.95
2019-02-23T10:35:28.483Z,23.27
2019-02-23T10:37:59.858Z,14.25
2019-02-23T10:40:31.074Z,16.60
2019-02-23T10:43:02.440Z,26.73
2019-02-23T10:45:34.834Z,42.30
2019-02-23T10:48:06.270Z,23.55
2019-02-23T10:50:37.534Z,34.20
2019-02-23T10:53:08.836Z,29.15
2019-02-23T10:55:40.027Z,21.33
2019-02-23T10:58:11.376Z,45.45
2019-02-23T11:00:43.668Z,11.40
2019-02-23T11:03:15.893Z,16.17
2019-02-23T11:05:47.072Z,30.08
2019-02-23T11:08:19.708Z,17.45
2019-02-23T11:10:52.234Z,24.20
2019-02-23T11:13:25.018Z,20.23
2019-02-23T11:15:56.821Z,30.12
2019-02-23T11:18:28.266Z,8.95
2019-02-23T11:20:59.508Z,14.00
2019-02-23T11:23:30.967Z,14.83
2019-02-23T11:26:02.234Z,17.07
2019-02-23T11:28:33.572Z,25.68
2019-02-23T11:31:04.956Z,27.00
2019-02-23T11:33:36.083Z,20.97
2019-02-23T11:36:07.543Z,15.08
2019-02-23T11:38:38.818Z,13.20
2019-02-23T11:41:10.021Z,22.17
2019-02-23T11:43:41.063Z,14.03
2019-02-23T11:46:12.356Z,28.05
2019-02-23T11:48:43.805Z,21.42
2019-02-23T11:51:15.166Z,12.28
2019-02-23T11:53:54.602Z,34.80
2019-02-23T11:56:19.913Z,39.80
2019-02-23T11:58:51.292Z,32.75
2019-02-23T12:01:24.486Z,13.50
2019-02-23T12:03:55.607Z,31.82
2019-02-23T12:06:26.933Z,25.35
2019-02-23T12:08:59.465Z,15.15
2019-02-23T12:11:31.035Z,25.12
2019-02-23T12:14:02.571Z,25.52
2019-02-23T12:16:33.936Z,16.30
2019-02-23T12:19:05.393Z,21.33
2019-02-23T12:21:37.935Z,25.50
2019-02-23T12:24:09.136Z,23.47
2019-02-23T12:26:41.423Z,34.80
2019-02-23T12:29:12.751Z,91.95
2019-02-23T12:31:43.867Z,82.22
2019-02-23T12:34:15.088Z,46.30
2019-02-23T12:36:46.149Z,27.55
2019-02-23T12:39:17.465Z,32.85
2019-02-23T12:41:48.677Z,22.85
2019-02-23T12:44:19.999Z,42.80
2019-02-23T12:46:51.398Z,18.87
2019-02-23T12:49:22.596Z,24.12
2019-02-23T12:51:53.921Z,46.15
2019-02-23T12:54:25.088Z,10.88
2019-02-23T12:56:56.214Z,24.70
2019-02-23T12:59:27.452Z,12.07
2019-02-23T13:01:59.193Z,25.10
2019-02-23T13:04:30.540Z,41.48
2019-02-23T13:07:01.799Z,26.62
2019-02-23T13:09:35.780Z,24.75
2019-02-23T13:12:14.173Z,21.77
2019-02-23T13:15:05.666Z,22.02
2019-02-23T13:18:08.745Z,18.60
2019-02-23T13:20:52.511Z,30.02
2019-02-23T13:24:27.722Z,25.15
2019-02-23T13:27:35.046Z,18.30
2019-02-23T13:30:43.918Z,19.35
2019-02-23T13:33:43.399Z,28.05
2019-02-23T13:36:48.561Z,19.15
2019-02-23T13:40:01.972Z,18.20
2019-02-23T13:43:00.242Z,19.62
2019-02-23T13:46:16.351Z,17.37
2019-02-23T13:49:33.389Z,18.15
2019-02-23T13:52:40.720Z,17.55
2019-02-23T13:55:52.227Z,20.23
2019-02-23T13:58:43.234Z,21.37
2019-02-23T14:01:55.508Z,19.23
2019-02-23T14:05:10.289Z,18.50
2019-02-23T14:08:07.798Z,19.17
2019-02-23T14:11:17.690Z,15.95
2019-02-23T14:14:15.855Z,18.10
2019-02-23T14:17:46.045Z,31.35
2019-02-23T14:21:07.257Z,77.60
2019-02-23T14:24:28.377Z,40.35
2019-02-23T14:28:06.624Z,52.05
2019-02-23T14:31:27.296Z,65.55
2019-02-23T14:34:50.262Z,35.40
2019-02-23T14:38:11.418Z,53.38
2019-02-23T14:41:23.345Z,76.37
2019-02-23T14:44:30.380Z,35.00
2019-02-23T14:47:17.287Z,72.75
2019-02-23T14:50:29.476Z,23.85
2019-02-23T14:53:37.311Z,90.20
2019-02-23T14:56:57.089Z,109.92
2019-02-23T15:00:01.794Z,37.00
2019-02-23T15:03:04.267Z,67.72
2019-02-23T15:06:19.855Z,69.27
2019-02-23T15:09:47.195Z,75.78
2019-02-23T15:12:50.054Z,82.42
2019-02-23T15:16:17.261Z,14.13
2019-02-23T15:19:12.092Z,67.05
2019-02-23T15:22:19.822Z,46.92
2019-02-23T15:25:29.428Z,76.62
2019-02-23T15:28:12.067Z,67.30
2019-02-23T15:31:16.708Z,17.95
2019-02-23T15:34:30.357Z,28.42
2019-02-23T15:37:40.797Z,23.22
2019-02-23T15:41:01.355Z,34.98
2019-02-23T15:44:10.403Z,12.53
2019-02-23T15:47:23.624Z,12.85
2019-02-23T15:49:55.922Z,70.32
2019-02-23T15:52:27.505Z,40.75
2019-02-23T15:54:58.866Z,43.85
2019-02-23T15:57:30.227Z,27.05
2019-02-23T16:00:01.446Z,34.90
2019-02-23T16:02:51.733Z,28.80
2019-02-23T16:05:23.070Z,52.30
2019-02-23T16:07:54.526Z,24.32
2019-02-23T16:10:26.080Z,35.88
2019-02-23T16:12:57.401Z,37.25
2019-02-23T16:15:28.627Z,41.77
2019-02-23T16:17:59.910Z,47.98
2019-02-23T16:20:31.158Z,48.38
2019-02-23T16:23:02.318Z,47.40
2019-02-23T16:25:38.403Z,34.48
2019-02-23T16:28:06.617Z,26.82
2019-02-23T16:30:37.928Z,32.75
2019-02-23T16:33:09.388Z,46.95
2019-02-23T16:35:40.781Z,56.92
2019-02-23T16:38:12.198Z,45.78
2019-02-23T16:40:43.610Z,61.05
2019-02-23T16:43:14.812Z,56.48
2019-02-23T16:45:46.153Z,18.45
2019-02-23T16:48:17.665Z,39.10
2019-02-23T16:50:49.124Z,36.90
2019-02-23T16:53:20.342Z,32.48
2019-02-23T16:55:51.688Z,23.35
2019-02-23T16:58:22.894Z,40.98
2019-02-23T17:00:54.428Z,48.58
2019-02-23T17:03:25.604Z,26.10
2019-02-23T17:05:57.056Z,27.98
2019-02-23T17:08:28.125Z,11.45
2019-02-23T17:10:59.512Z,29.75
2019-02-23T17:13:30.811Z,23.95
2019-02-23T17:16:03.236Z,25.43
2019-02-23T17:18:34.630Z,29.40
2019-02-23T17:21:05.926Z,19.52
2019-02-23T17:23:37.029Z,7.55
2019-02-23T17:26:08.391Z,22.30
2019-02-23T17:28:39.723Z,20.90
2019-02-23T17:31:10.981Z,22.52
2019-02-23T17:33:42.241Z,21.57
2019-02-23T17:36:13.518Z,23.80
2019-02-23T17:38:44.895Z,7.55
2019-02-23T17:41:16.320Z,24.67
2019-02-23T17:43:47.524Z,27.25
2019-02-23T17:46:18.770Z,9.85
2019-02-23T17:48:50.287Z,13.55
2019-02-23T17:51:21.665Z,17.20
2019-02-23T17:53:52.950Z,8.80
2019-02-23T17:56:24.281Z,9.68
2019-02-23T17:58:55.486Z,7.97
2019-02-23T18:01:26.865Z,17.90
2019-02-23T18:03:58.104Z,5.28
2019-02-23T18:06:30.991Z,7.17
2019-02-23T18:09:02.642Z,24.80
2019-02-23T18:11:35.491Z,19.05
2019-02-23T18:14:07.648Z,14.73
2019-02-23T18:16:40.287Z,10.43
2019-02-23T18:19:11.841Z,13.35
2019-02-23T18:21:43.302Z,16.20
2019-02-23T18:24:15.697Z,6.67
2019-02-23T18:26:47.327Z,10.20
2019-02-23T18:29:18.775Z,6.28
2019-02-23T18:31:50.564Z,16.55
2019-02-23T18:34:22.293Z,13.25
2019-02-23T18:37:12.866Z,17.40
2019-02-23T18:39:45.464Z,20.05
2019-02-23T18:42:17.197Z,28.30
2019-02-23T18:44:49.381Z,12.73
2019-02-23T18:47:22.321Z,20.12
2019-02-23T18:49:54.435Z,19.80
2019-02-23T18:52:26.818Z,14.70
2019-02-23T18:54:59.278Z,17.60
2019-02-23T18:57:32.520Z,6.90
2019-02-23T19:00:05.749Z,7.45
2019-02-23T19:02:39.809Z,19.10
2019-02-23T19:05:13.151Z,16.73
2019-02-23T19:07:45.780Z,14.55
2019-02-23T19:10:18.155Z,8.05
2019-02-23T19:12:50.573Z,27.42
2019-02-23T19:15:23.118Z,6.62
2019-02-23T19:17:56.485Z,18.45
2019-02-23T19:20:29.161Z,5.22
2019-02-23T19:23:02.096Z,7.47
2019-02-23T19:25:34.947Z,8.68
2019-02-23T19:28:08.328Z,10.55
2019-02-23T19:30:59.343Z,11.00
2019-02-23T19:33:32.583Z,9.00
2019-02-23T19:36:05.754Z,8.15
2019-02-23T19:38:39.111Z,9.40
2019-02-23T19:41:11.858Z,9.55
2019-02-23T19:43:45.934Z,7.42
2019-02-23T19:46:18.977Z,9.53
2019-02-23T19:48:52.875Z,6.83
2019-02-23T19:51:26.898Z,9.90
2019-02-23T19:54:00.133Z,7.95
2019-02-23T19:56:33.077Z,13.70
2019-02-23T19:59:06.267Z,40.65
2019-02-23T20:01:39.266Z,22.80
2019-02-23T20:04:12.116Z,50.00
2019-02-23T20:06:44.540Z,9.50
2019-02-23T20:09:20.258Z,20.97
2019-02-23T20:11:54.098Z,46.50
2019-02-23T20:14:27.058Z,42.50
2019-02-23T20:17:00.492Z,59.58
2019-02-23T20:19:34.017Z,43.63
2019-02-23T20:22:07.119Z,68.28
2019-02-23T20:24:40.458Z,14.80
2019-02-23T20:27:12.747Z,63.70
2019-02-23T20:29:46.083Z,59.20
2019-02-23T20:32:18.716Z,54.73
2019-02-23T20:34:51.916Z,80.40
2019-02-23T20:37:24.590Z,24.95
2019-02-23T20:39:57.595Z,28.77
2019-02-23T20:42:30.747Z,56.55
2019-02-23T20:45:03.993Z,28.20
2019-02-23T20:47:38.391Z,34.38
2019-02-23T20:50:12.429Z,45.40
2019-02-23T20:52:46.109Z,51.28
2019-02-23T20:55:19.781Z,36.08
2019-02-23T20:57:53.180Z,33.67
2019-02-23T21:00:27.718Z,19.92
2019-02-23T21:03:01.004Z,7.95
2019-02-23T21:05:34.585Z,59.20
2019-02-23T21:08:08.257Z,57.53
2019-02-23T21:10:42.250Z,15.18
2019-02-23T21:13:15.850Z,14.20
2019-02-23T21:15:50.401Z,9.53
2019-02-23T21:18:23.523Z,8.95
2019-02-23T21:20:55.974Z,8.20
2019-02-23T21:23:28.093Z,10.38
2019-02-23T21:26:00.231Z,7.95
2019-02-23T21:28:33.168Z,9.48
2019-02-23T21:31:05.287Z,4.90
2019-02-23T21:33:37.252Z,4.45
2019-02-23T21:36:08.992Z,4.40
2019-02-23T21:38:40.184Z,4.25
2019-02-23T21:41:11.528Z,4.45
2019-02-23T21:43:42.653Z,4.70
2019-02-23T21:46:14.070Z,4.92
2019-02-23T21:48:45.203Z,4.78
2019-02-23T21:51:16.499Z,4.33
2019-02-23T21:53:47.732Z,3.77
2019-02-23T21:56:20.119Z,3.92
2019-02-23T21:58:51.228Z,4.30
2019-02-23T22:01:22.610Z,21.40
2019-02-23T22:03:53.920Z,12.88
2019-02-23T22:06:25.063Z,8.23
2019-02-23T22:08:56.225Z,5.80
2019-02-23T22:11:27.667Z,6.12
2019-02-23T22:13:59.143Z,13.22
2019-02-23T22:16:31.174Z,10.30
2019-02-23T22:19:03.691Z,18.92
2019-02-23T22:21:35.007Z,43.52
2019-02-23T22:24:06.244Z,54.00
2019-02-23T22:26:48.855Z,64.25
2019-02-23T22:29:20.117Z,52.50
2019-02-23T22:31:51.796Z,43.23
2019-02-23T22:34:22.994Z,30.90
2019-02-23T22:36:54.352Z,33.90
2019-02-23T22:39:25.765Z,46.70
2019-02-23T22:41:57.173Z,59.25
2019-02-23T22:44:28.528Z,81.45
2019-02-23T22:46:59.940Z,56.60
2019-02-23T22:49:31.159Z,53.05
2019-02-23T22:52:02.809Z,54.53
2019-02-23T22:54:35.228Z,24.30
2019-02-23T22:57:06.576Z,36.42
2019-02-23T22:59:38.525Z,19.30
2019-02-23T23:02:09.895Z,65.35
2019-02-23T23:04:41.562Z,56.80
2019-02-23T23:07:12.768Z,78.72
2019-02-23T23:09:44.226Z,39.13
2019-02-23T23:12:15.679Z,41.40
2019-02-23T23:14:47.144Z,20.65
2019-02-23T23:17:19.053Z,19.30
2019-02-23T23:19:50.760Z,19.07
2019-02-23T23:22:22.096Z,26.73
2019-02-23T23:24:53.416Z,18.70
2019-02-23T23:27:24.606Z,52.85
2019-02-23T23:29:57.369Z,39.92
2019-02-23T23:32:28.689Z,30.48
2019-02-23T23:35:00.287Z,42.35
2019-02-23T23:37:31.574Z,21.12
2019-02-23T23:40:02.982Z,29.65
2019-02-23T23:42:34.339Z,45.10
2019-02-23T23:45:06.209Z,31.93
2019-02-23T23:47:37.581Z,46.25
2019-02-23T23:50:09.017Z,27.58
2019-02-23T23:52:40.442Z,32.50
2019-02-23T23:55:11.745Z,15.00
2019-02-23T23:57:44.369Z,45.83
